Frpd 309 — CFN7067 — position and weather

sailwx.info

Track history (hours):
 
Tides and Currents Weather Stations Pressure Air Temp Water Temp Dewpoint Dewpoint Depression Visibility Wind Speed Wind Dir Waves Ship Positions

Frpd 309

Last reported at 2018-Feb-22 15:33 UTC. Time now 2018-Feb-25 18:16 UTC.
Position N 48°24' W 123°24'.

Length 124 m; draft 6.9 m.

Type: Dredging. MMSI: 316029591.

Date/timePositionNaut miles runAvg speedWind from/ knotsBaromVisibWave heightAir tempDewpointWater temp
2018-Feb-22 15:33N 48°24' W 123°24'1 8.0
2018-Feb-22 15:22N 48°24' W 123°23'3 7.2
2018-Feb-22 15:00N 48°23' W 123°19'3 6.5
2018-Feb-22 14:30N 48°24' W 123°14'2 4.3
2018-Feb-22 14:00N 48°26' W 123°12'3 5.2
2018-Feb-22 13:30N 48°28' W 123°12'2 4.7
2018-Feb-22 13:00N 48°31' W 123°12'2 4.5
2018-Feb-22 12:30N 48°33' W 123°13'2 4.8
2018-Feb-22 12:00N 48°35' W 123°14'2 4.8
2018-Feb-22 11:30N 48°38' W 123°14'2 4.4
2018-Feb-22 11:00N 48°40' W 123°15'2 3.5
2018-Feb-22 10:30N 48°41' W 123°16'2 3.2
2018-Feb-22 10:00N 48°43' W 123°15'2 4.6
2018-Feb-22 09:30N 48°43' W 123°12'2 4.3
2018-Feb-22 09:00N 48°44' W 123°09'3 5.2
2018-Feb-22 08:30N 48°45' W 123°05'4 7.0
2018-Feb-22 08:00N 48°47' W 123°01'4 7.2
2018-Feb-22 07:30N 48°50' W 123°04'4 7.8
2018-Feb-22 07:00N 48°53' W 123°08'4 8.2
2018-Feb-22 06:30N 48°56' W 123°12'4 8.4
2018-Feb-22 06:00N 48°58' W 123°17'5 9.2
2018-Feb-22 05:29N 49°02' W 123°22'3 6.4
2018-Feb-22 05:00N 49°05' W 123°22'2 3.7
2018-Feb-22 04:30N 49°06' W 123°20'4 8.4
2018-Feb-22 04:00N 49°08' W 123°14'5 9.6
2018-Feb-22 03:30N 49°07' W 123°07'5 9.9
2018-Feb-22 03:00N 49°09' W 123°00'2 3.5
2018-Feb-22 02:30N 49°09' W 122°58'0 0.1
2018-Feb-22 02:00N 49°09' W 122°58'0 0.0
2018-Feb-22 01:30N 49°09' W 122°58'0 0.0
2018-Feb-22 01:00N 49°09' W 122°58'0 0.0
2018-Feb-22 00:30N 49°09' W 122°58'0 0.0
2018-Feb-22 00:00N 49°09' W 122°58'0 0.0
2018-Feb-21 23:30N 49°09' W 122°58'0 0.0
2018-Feb-21 23:00N 49°09' W 122°58'0 0.0
2018-Feb-21 22:30N 49°09' W 122°58'0 0.0
2018-Feb-21 22:00N 49°09' W 122°58'0 0.0
2018-Feb-21 21:30N 49°09' W 122°58'0 0.0
2018-Feb-21 21:00N 49°09' W 122°58'0 0.0
2018-Feb-21 20:30N 49°09' W 122°58'0 0.0
2018-Feb-21 20:00N 49°09' W 122°58'0 0.0
2018-Feb-21 19:30N 49°09' W 122°58'0 0.0
2018-Feb-21 19:00N 49°09' W 122°58'0 0.0
2018-Feb-21 18:30N 49°09' W 122°58'0 0.0
2018-Feb-21 18:00N 49°09' W 122°58'0 0.0
2018-Feb-21 17:30N 49°09' W 122°58'0 0.0
2018-Feb-21 17:00N 49°09' W 122°58'0 0.0
2018-Feb-21 16:30N 49°09' W 122°58'0 0.0
2018-Feb-21 16:00N 49°09' W 122°58'0 0.0
2018-Feb-21 15:30N 49°09' W 122°58'0 0.0
2018-Feb-21 15:00N 49°09' W 122°58'0 0.0
2018-Feb-21 14:30N 49°09' W 122°58'0 0.0
2018-Feb-21 14:00N 49°09' W 122°58'0 0.0
2018-Feb-21 13:30N 49°09' W 122°58'0 0.0
2018-Feb-21 13:00N 49°09' W 122°58'0 0.0
2018-Feb-21 12:30N 49°09' W 122°58'0 0.0
2018-Feb-21 12:00N 49°09' W 122°58'0 0.0
2018-Feb-21 11:30N 49°09' W 122°58'0 0.0
2018-Feb-21 10:57N 49°09' W 122°58'0 0.0
2018-Feb-21 10:30N 49°09' W 122°58'0 0.0
2018-Feb-21 10:00N 49°09' W 122°58'0 0.0
2018-Feb-21 09:30N 49°09' W 122°58'0 0.0
2018-Feb-21 09:00N 49°09' W 122°58'0 0.0
2018-Feb-21 08:30N 49°09' W 122°58'0 0.0
2018-Feb-21 08:00N 49°09' W 122°58'0 0.0
2018-Feb-21 07:30N 49°09' W 122°58'0 0.0
2018-Feb-21 07:00N 49°09' W 122°58'0 0.0
2018-Feb-21 06:30N 49°09' W 122°58'0 0.0
2018-Feb-21 06:00N 49°09' W 122°58'0 0.0
2018-Feb-21 05:30N 49°09' W 122°58'0 0.0
2018-Feb-21 05:00N 49°09' W 122°58'0 0.0
2018-Feb-21 04:30N 49°09' W 122°58'0 0.0
2018-Feb-21 04:00N 49°09' W 122°58'0 0.0
2018-Feb-21 03:30N 49°09' W 122°58'0 0.0
2018-Feb-21 03:00N 49°09' W 122°58'0 0.0
2018-Feb-21 02:30N 49°09' W 122°58'0 0.0
2018-Feb-21 02:00N 49°09' W 122°58'0 0.0
2018-Feb-21 01:30N 49°09' W 122°58'0 0.0
2018-Feb-21 01:00N 49°09' W 122°58'0 0.0
2018-Feb-21 00:29N 49°09' W 122°58'0 0.0
2018-Feb-21 00:00N 49°09' W 122°58'0 0.0
2018-Feb-20 23:30N 49°09' W 122°58'0 0.0
2018-Feb-20 23:00N 49°09' W 122°58'0 0.0
2018-Feb-20 22:30N 49°09' W 122°58'0 0.0
2018-Feb-20 22:00N 49°09' W 122°58'0 0.0
2018-Feb-20 21:29N 49°09' W 122°58'0 0.0
2018-Feb-20 21:00N 49°09' W 122°58'0 0.0
2018-Feb-20 20:29N 49°09' W 122°58'0 0.0
2018-Feb-20 20:00N 49°09' W 122°58'0 0.0
2018-Feb-20 19:29N 49°09' W 122°58'0 0.0
2018-Feb-20 18:59N 49°09' W 122°58'0 0.0
2018-Feb-20 18:30N 49°09' W 122°58'0 0.0
2018-Feb-20 18:00N 49°09' W 122°58'0 0.0
2018-Feb-20 17:29N 49°09' W 122°58'0 0.0
2018-Feb-20 16:59N 49°09' W 122°58'0 0.0
2018-Feb-20 16:29N 49°09' W 122°58'0 0.0
2018-Feb-20 16:00N 49°09' W 122°58'0 0.0
2018-Feb-20 15:29N 49°09' W 122°58'0 0.0
2018-Feb-20 15:00N 49°09' W 122°58'0 0.0
2018-Feb-20 14:30N 49°09' W 122°58'0 0.0
2018-Feb-20 14:00N 49°09' W 122°58'0 0.0
2018-Feb-20 13:30N 49°09' W 122°58'0 0.0
2018-Feb-20 12:59N 49°09' W 122°58'0 0.0
2018-Feb-20 12:29N 49°09' W 122°58'0 0.0
2018-Feb-20 12:00N 49°09' W 122°58'0 0.0
2018-Feb-20 11:30N 49°09' W 122°58'0 0.0
2018-Feb-20 11:00N 49°09' W 122°58'0 0.0
2018-Feb-20 10:29N 49°09' W 122°58'0 0.0
2018-Feb-20 09:59N 49°09' W 122°58'0 0.0
2018-Feb-20 09:29N 49°09' W 122°58'0 0.0
2018-Feb-20 09:00N 49°09' W 122°58'0 0.0
2018-Feb-20 08:30N 49°09' W 122°58'0 0.0
2018-Feb-20 07:59N 49°09' W 122°58'0 0.0
2018-Feb-20 07:29N 49°09' W 122°58'0 0.0
2018-Feb-20 06:59N 49°09' W 122°58'0 0.0
2018-Feb-20 06:29N 49°09' W 122°58'0 0.0
2018-Feb-20 05:59N 49°09' W 122°58'0 0.0
2018-Feb-20 05:29N 49°09' W 122°58'0 0.0
2018-Feb-20 04:59N 49°09' W 122°58'0 0.0
2018-Feb-20 04:29N 49°09' W 122°58'0 0.0
2018-Feb-20 03:59N 49°09' W 122°58'0 0.0
2018-Feb-20 03:29N 49°09' W 122°58'0 0.0
2018-Feb-20 02:59N 49°09' W 122°58'0 0.0
2018-Feb-20 02:29N 49°09' W 122°58'0 0.0
2018-Feb-20 01:59N 49°09' W 122°58'0 0.0
2018-Feb-20 01:29N 49°09' W 122°58'0 0.0
2018-Feb-20 00:59N 49°09' W 122°58'0 0.0
2018-Feb-20 00:29N 49°09' W 122°58'0 0.0
2018-Feb-19 23:59N 49°09' W 122°58'0 0.0
2018-Feb-19 23:29N 49°09' W 122°58'0 0.0
2018-Feb-19 22:59N 49°09' W 122°58'0 0.0
2018-Feb-19 22:29N 49°09' W 122°58'0 0.0
2018-Feb-19 21:59N 49°09' W 122°58'0 0.0
2018-Feb-19 21:24N 49°09' W 122°58'0 0.0
2018-Feb-19 20:59N 49°09' W 122°58'0 0.0
2018-Feb-19 20:29N 49°09' W 122°58'0 0.0
2018-Feb-19 19:59N 49°09' W 122°58'0 0.0
2018-Feb-19 19:29N 49°09' W 122°58'0 0.0
2018-Feb-19 18:59N 49°09' W 122°58'0 0.0
2018-Feb-19 18:29N 49°09' W 122°58'0 0.0
2018-Feb-19 17:59N 49°09' W 122°58'0 0.0
2018-Feb-19 17:29N 49°09' W 122°58'0 0.0
2018-Feb-19 16:59N 49°09' W 122°58'0 0.0
2018-Feb-19 16:29N 49°09' W 122°58'0 0.0
2018-Feb-19 15:59N 49°09' W 122°58'0 0.0
2018-Feb-19 15:29N 49°09' W 122°58'0 0.0
2018-Feb-19 14:59N 49°09' W 122°58'0 0.0
2018-Feb-19 14:29N 49°09' W 122°58'0 0.0
2018-Feb-19 13:59N 49°09' W 122°58'0 0.0
2018-Feb-19 13:29N 49°09' W 122°58'0 0.0
2018-Feb-19 12:59N 49°09' W 122°58'0 0.0
2018-Feb-19 12:29N 49°09' W 122°58'0 0.0
2018-Feb-19 11:59N 49°09' W 122°58'0 0.0
2018-Feb-19 11:29N 49°09' W 122°58'0 0.0
2018-Feb-19 10:59N 49°09' W 122°58'0 0.0
2018-Feb-19 10:29N 49°09' W 122°58'0 0.0
2018-Feb-19 09:59N 49°09' W 122°58'0 0.0
2018-Feb-19 09:29N 49°09' W 122°58'0 0.0
2018-Feb-19 08:59N 49°09' W 122°58'0 0.0
2018-Feb-19 08:23N 49°09' W 122°58'0 0.0
2018-Feb-19 07:59N 49°09' W 122°58'0 0.0
2018-Feb-19 07:29N 49°09' W 122°58'0 0.0
2018-Feb-19 06:59N 49°09' W 122°58'0 0.0
2018-Feb-19 06:29N 49°09' W 122°58'0 0.0
2018-Feb-19 05:59N 49°09' W 122°58'0 0.0
2018-Feb-19 05:29N 49°09' W 122°58'0 0.0
2018-Feb-19 04:59N 49°09' W 122°58'0 0.0
2018-Feb-19 04:29N 49°09' W 122°58'0 0.0
2018-Feb-19 03:59N 49°09' W 122°58'0 0.0
2018-Feb-19 03:29N 49°09' W 122°58'0 0.0
2018-Feb-19 02:59N 49°09' W 122°58'0 0.0
2018-Feb-19 02:29N 49°09' W 122°58'0 0.0
2018-Feb-19 01:59N 49°09' W 122°58'0 0.0
2018-Feb-19 01:29N 49°09' W 122°58'0 0.0
2018-Feb-19 00:59N 49°09' W 122°58'0 0.0
2018-Feb-19 00:29N 49°09' W 122°58'0 0.0
2018-Feb-18 23:59N 49°09' W 122°58'0 0.0
2018-Feb-18 23:29N 49°09' W 122°58'0 0.0
2018-Feb-18 22:59N 49°09' W 122°58'0 0.0
2018-Feb-18 22:29N 49°09' W 122°58'0 0.0
2018-Feb-18 21:59N 49°09' W 122°58'0 0.0
2018-Feb-18 21:29N 49°09' W 122°58'0 0.0
2018-Feb-18 20:59N 49°09' W 122°58'0 0.0
2018-Feb-18 20:29N 49°09' W 122°58'0 0.0
2018-Feb-18 19:59N 49°09' W 122°58'0 0.0
2018-Feb-18 19:29N 49°09' W 122°58'0 0.0
2018-Feb-18 18:59N 49°09' W 122°58'0 0.0
2018-Feb-18 18:29N 49°09' W 122°58'0 0.0
2018-Feb-18 17:59N 49°09' W 122°58'0 0.0
2018-Feb-18 17:29N 49°09' W 122°58'0 0.0
2018-Feb-18 16:59N 49°09' W 122°58'0 0.0
2018-Feb-18 16:29N 49°09' W 122°58'0 0.0
2018-Feb-18 15:59N 49°09' W 122°58'0 0.0
2018-Feb-18 15:29N 49°09' W 122°58'0 0.0
2018-Feb-18 14:59N 49°09' W 122°58'0 0.0
2018-Feb-18 14:29N 49°09' W 122°58'0 0.0
2018-Feb-18 13:59N 49°09' W 122°58'0 0.0
2018-Feb-18 13:29N 49°09' W 122°58'0 0.0
2018-Feb-18 12:59N 49°09' W 122°58'0 0.0
2018-Feb-18 12:29N 49°09' W 122°58'0 0.0
2018-Feb-18 11:59N 49°09' W 122°58'0 0.0
2018-Feb-18 11:29N 49°09' W 122°58'0 0.0
2018-Feb-18 10:59N 49°09' W 122°58'0 0.0
2018-Feb-18 10:29N 49°09' W 122°58'0 0.0
2018-Feb-18 09:59N 49°09' W 122°58'0 0.0
2018-Feb-18 09:29N 49°09' W 122°58'0 0.0
2018-Feb-18 08:59N 49°09' W 122°58'0 0.0
2018-Feb-18 08:29N 49°09' W 122°58'0 0.0
2018-Feb-18 07:59N 49°09' W 122°58'0 0.0
2018-Feb-18 07:29N 49°09' W 122°58'0 0.0
2018-Feb-18 06:59N 49°09' W 122°58'0 0.0
2018-Feb-18 06:29N 49°09' W 122°58'0 0.0
2018-Feb-18 05:59N 49°09' W 122°58'0 0.0
2018-Feb-18 05:29N 49°09' W 122°58'0 0.0
2018-Feb-18 04:59N 49°09' W 122°58'0 0.0
2018-Feb-18 04:29N 49°09' W 122°58'0 0.0
2018-Feb-18 03:59N 49°09' W 122°58'0 0.0
2018-Feb-18 03:29N 49°09' W 122°58'0 0.0
2018-Feb-18 02:59N 49°09' W 122°58'0 0.0
2018-Feb-18 02:29N 49°09' W 122°58'0 0.0
2018-Feb-18 01:59N 49°09' W 122°58'0 0.0
2018-Feb-18 01:29N 49°09' W 122°58'0 0.0
2018-Feb-18 00:59N 49°09' W 122°58'0 0.0
2018-Feb-18 00:29N 49°09' W 122°58'0 0.0
2018-Feb-17 23:59N 49°09' W 122°58'0 0.0
2018-Feb-17 23:29N 49°09' W 122°58'0 0.0
2018-Feb-17 22:59N 49°09' W 122°58'0 0.0
2018-Feb-17 22:29N 49°09' W 122°58'0 0.0
2018-Feb-17 21:59N 49°09' W 122°58'0 0.0
2018-Feb-17 21:29N 49°09' W 122°58'0 0.0
2018-Feb-17 20:59N 49°09' W 122°58'0 0.0
2018-Feb-17 20:29N 49°09' W 122°58'0 0.0
2018-Feb-17 19:59N 49°09' W 122°58'0 0.0
2018-Feb-17 19:29N 49°09' W 122°58'0 0.0
2018-Feb-17 18:59N 49°09' W 122°58'0 0.0
2018-Feb-17 18:29N 49°09' W 122°58'0 0.0
2018-Feb-17 17:59N 49°09' W 122°58'0 0.0
2018-Feb-17 17:29N 49°09' W 122°58'0 0.0
2018-Feb-17 16:59N 49°09' W 122°58'0 0.0
2018-Feb-17 16:29N 49°09' W 122°58'0 0.0
2018-Feb-17 15:59N 49°09' W 122°58'0 0.0
2018-Feb-17 15:29N 49°09' W 122°58'0 0.0
2018-Feb-17 14:59N 49°09' W 122°58'0 0.0
2018-Feb-17 14:29N 49°09' W 122°58'0 0.0
2018-Feb-17 13:59N 49°09' W 122°58'0 0.0
2018-Feb-17 13:29N 49°09' W 122°58'0 0.0
2018-Feb-17 12:59N 49°09' W 122°58'0 0.0
2018-Feb-17 12:29N 49°09' W 122°58'0 0.0
2018-Feb-17 11:59N 49°09' W 122°58'0 0.0
2018-Feb-17 11:29N 49°09' W 122°58'0 0.0
2018-Feb-17 10:59N 49°09' W 122°58'0 0.0
2018-Feb-17 10:29N 49°09' W 122°58'0 0.0
2018-Feb-17 09:59N 49°09' W 122°58'0 0.0
2018-Feb-17 09:29N 49°09' W 122°58'0 0.0
2018-Feb-17 08:59N 49°09' W 122°58'0 0.0
2018-Feb-17 08:29N 49°09' W 122°58'0 0.0
2018-Feb-17 07:59N 49°09' W 122°58'0 0.0
2018-Feb-17 07:29N 49°09' W 122°58'0 0.0
2018-Feb-17 06:59N 49°09' W 122°58'0 0.0
2018-Feb-17 06:29N 49°09' W 122°58'0 0.0
2018-Feb-17 05:59N 49°09' W 122°58'0 0.0
2018-Feb-17 05:29N 49°09' W 122°58'0 0.0
2018-Feb-17 04:59N 49°09' W 122°58'0 0.0
2018-Feb-17 04:29N 49°09' W 122°58'0 0.0
2018-Feb-17 03:59N 49°09' W 122°58'0 0.0
2018-Feb-17 03:29N 49°09' W 122°58'0 0.0
2018-Feb-17 02:59N 49°09' W 122°58'0 0.0
2018-Feb-17 02:29N 49°09' W 122°58'0 0.0
2018-Feb-17 01:59N 49°09' W 122°58'0 0.0
2018-Feb-17 01:29N 49°09' W 122°58'0 0.0
2018-Feb-17 00:59N 49°09' W 122°58'0 0.0
2018-Feb-17 00:29N 49°09' W 122°58'0 0.0
2018-Feb-16 23:59N 49°09' W 122°58'0 0.0
2018-Feb-16 23:29N 49°09' W 122°58'0 0.0
2018-Feb-16 22:59N 49°09' W 122°58'0 0.0
2018-Feb-16 22:29N 49°09' W 122°58'0 0.0
2018-Feb-16 21:59N 49°09' W 122°58'0 0.0
2018-Feb-16 21:29N 49°09' W 122°58'0 0.0
2018-Feb-16 20:59N 49°09' W 122°58'0 0.0
2018-Feb-16 20:29N 49°09' W 122°58'0 0.0
2018-Feb-16 19:59N 49°09' W 122°58'0 0.0
2018-Feb-16 19:29N 49°09' W 122°58'0 0.0
2018-Feb-16 18:59N 49°09' W 122°58'0 0.0
2018-Feb-16 18:29N 49°09' W 122°58'0 0.0
2018-Feb-16 17:59N 49°09' W 122°58'0 0.0
2018-Feb-16 17:29N 49°09' W 122°58'0 0.0
2018-Feb-16 16:59N 49°09' W 122°58'0 0.0
2018-Feb-16 16:23N 49°09' W 122°58'0 0.0
2018-Feb-16 15:59N 49°09' W 122°58'0 0.0
2018-Feb-16 15:29N 49°09' W 122°58'0 0.0
2018-Feb-16 14:59N 49°09' W 122°58'0 0.0
2018-Feb-16 14:29N 49°09' W 122°58'0 0.0
2018-Feb-16 13:59N 49°09' W 122°58'0 0.0
2018-Feb-16 13:29N 49°09' W 122°58'0 0.0
2018-Feb-16 12:59N 49°09' W 122°58'0 0.0
2018-Feb-16 12:29N 49°09' W 122°58'0 0.0
2018-Feb-16 11:59N 49°09' W 122°58'0 0.0
2018-Feb-16 11:29N 49°09' W 122°58'0 0.0
2018-Feb-16 10:59N 49°09' W 122°58'0 0.0
2018-Feb-16 10:29N 49°09' W 122°58'0 0.0
2018-Feb-16 09:59N 49°09' W 122°58'0 0.0
2018-Feb-16 09:29N 49°09' W 122°58'0 0.0
2018-Feb-16 08:59N 49°09' W 122°58'0 0.0
2018-Feb-16 08:29N 49°09' W 122°58'0 0.0
2018-Feb-16 07:59N 49°09' W 122°58'0 0.0
2018-Feb-16 07:29N 49°09' W 122°58'0 0.0
2018-Feb-16 06:59N 49°09' W 122°58'0 0.0
2018-Feb-16 06:29N 49°09' W 122°58'0 0.0
2018-Feb-16 05:59N 49°09' W 122°58'0 0.0
2018-Feb-16 05:29N 49°09' W 122°58'0 0.0
2018-Feb-16 04:53N 49°09' W 122°58'0 0.0
2018-Feb-16 04:29N 49°09' W 122°58'0 0.0
2018-Feb-16 03:59N 49°09' W 122°58'0 0.0
2018-Feb-16 03:29N 49°09' W 122°58'0 0.0
2018-Feb-16 02:59N 49°09' W 122°58'0 0.0
2018-Feb-16 02:29N 49°09' W 122°58'0 0.0
2018-Feb-16 01:59N 49°09' W 122°58'0 0.0
2018-Feb-16 01:29N 49°09' W 122°58'0 0.0
2018-Feb-16 00:56N 49°09' W 122°58'0 0.0
2018-Feb-16 00:29N 49°09' W 122°58'0 0.0
2018-Feb-15 23:59N 49°09' W 122°58'0 0.0
2018-Feb-15 23:29N 49°09' W 122°58'0 0.0
2018-Feb-15 22:59N 49°09' W 122°58'0 0.0
2018-Feb-15 22:29N 49°09' W 122°58'0 0.0
2018-Feb-15 21:59N 49°09' W 122°58'0 0.0
2018-Feb-15 21:29N 49°09' W 122°58'0 0.0
2018-Feb-15 20:59N 49°09' W 122°58'0 0.0
2018-Feb-15 20:29N 49°09' W 122°58'0 0.0
2018-Feb-15 19:59N 49°09' W 122°58'0 0.0
2018-Feb-15 19:29N 49°09' W 122°58'0 0.0
2018-Feb-15 18:59N 49°09' W 122°58'0 0.0
2018-Feb-15 18:29N 49°09' W 122°58'0 0.0
2018-Feb-15 17:59N 49°09' W 122°58'0 0.0
2018-Feb-15 17:29N 49°09' W 122°58'0 0.0
2018-Feb-15 16:59N 49°09' W 122°58'0 0.0
2018-Feb-15 16:29N 49°09' W 122°58'0 0.0
2018-Feb-15 15:59N 49°09' W 122°58'0 0.0
2018-Feb-15 15:29N 49°09' W 122°58'0 0.0
2018-Feb-15 14:59N 49°09' W 122°58'0 0.0
2018-Feb-15 14:29N 49°09' W 122°58'0 0.0
2018-Feb-15 13:59N 49°09' W 122°58'0 0.0
2018-Feb-15 13:29N 49°09' W 122°58'0 0.0
2018-Feb-15 12:59N 49°09' W 122°58'0 0.0
2018-Feb-15 12:29N 49°09' W 122°58'0 0.0
2018-Feb-15 11:59N 49°09' W 122°58'0 0.0
2018-Feb-15 11:29N 49°09' W 122°58'0 0.0
2018-Feb-15 10:59N 49°09' W 122°58'0 0.0
2018-Feb-15 10:29N 49°09' W 122°58'0 0.0
2018-Feb-15 09:59N 49°09' W 122°58'0 0.0
2018-Feb-15 09:29N 49°09' W 122°58'0 0.0
2018-Feb-15 08:59N 49°09' W 122°58'0 0.0
2018-Feb-15 08:29N 49°09' W 122°58'0 0.0
2018-Feb-15 07:59N 49°09' W 122°58'0 0.0
2018-Feb-15 07:29N 49°09' W 122°58'0 0.0
2018-Feb-15 06:59N 49°09' W 122°58'0 0.0
2018-Feb-15 06:23N 49°09' W 122°58'0 0.0
2018-Feb-15 05:59N 49°09' W 122°58'0 0.0
2018-Feb-15 05:29N 49°09' W 122°58'0 0.0
2018-Feb-15 04:59N 49°09' W 122°58'0 0.0
2018-Feb-15 04:29N 49°09' W 122°58'0 0.0
2018-Feb-15 03:59N 49°09' W 122°58'0 0.0
2018-Feb-15 03:29N 49°09' W 122°58'0 0.0
2018-Feb-15 02:59N 49°09' W 122°58'0 0.0
2018-Feb-15 02:29N 49°09' W 122°58'0 0.0
2018-Feb-15 01:59N 49°09' W 122°58'0 0.0
2018-Feb-15 01:29N 49°09' W 122°58'0 0.0
2018-Feb-15 00:59N 49°09' W 122°58'0 0.0
2018-Feb-15 00:29N 49°09' W 122°58'0 0.0
2018-Feb-14 23:59N 49°09' W 122°58'0 0.0
2018-Feb-14 23:29N 49°09' W 122°58'0 0.0
2018-Feb-14 22:59N 49°09' W 122°58'0 0.0
2018-Feb-14 22:29N 49°09' W 122°58'0 0.0
2018-Feb-14 21:59N 49°09' W 122°58'0 0.0
2018-Feb-14 21:29N 49°09' W 122°58'0 0.0
2018-Feb-14 20:59N 49°09' W 122°58'0 0.0
2018-Feb-14 20:29N 49°09' W 122°58'0 0.0
2018-Feb-14 19:59N 49°09' W 122°58'0 0.0
2018-Feb-14 19:29N 49°09' W 122°58'0 0.0
2018-Feb-14 18:59N 49°09' W 122°58'0 0.0
2018-Feb-14 18:26N 49°09' W 122°58'0 0.0
2018-Feb-14 17:59N 49°09' W 122°58'0 0.0
2018-Feb-14 17:29N 49°09' W 122°58'0 0.0
2018-Feb-14 16:59N 49°09' W 122°58'0 0.0
2018-Feb-14 16:29N 49°09' W 122°58'0 0.0
2018-Feb-14 15:59N 49°09' W 122°58'0 0.0
2018-Feb-14 15:29N 49°09' W 122°58'0 0.0
2018-Feb-14 14:59N 49°09' W 122°58'0 0.0
2018-Feb-14 14:29N 49°09' W 122°58'0 0.0
2018-Feb-14 13:59N 49°09' W 122°58'0 0.0
2018-Feb-14 13:29N 49°09' W 122°58'0 0.0
2018-Feb-14 12:59N 49°09' W 122°58'0 0.0
2018-Feb-14 12:29N 49°09' W 122°58'0 0.0
2018-Feb-14 11:59N 49°09' W 122°58'0 0.0
2018-Feb-14 11:29N 49°09' W 122°58'0 0.0
2018-Feb-14 10:59N 49°09' W 122°58'0 0.0
2018-Feb-14 10:29N 49°09' W 122°58'0 0.0
2018-Feb-14 09:59N 49°09' W 122°58'0 0.0
2018-Feb-14 09:29N 49°09' W 122°58'0 0.0
2018-Feb-14 08:59N 49°09' W 122°58'0 0.0
2018-Feb-14 08:29N 49°09' W 122°58'0 0.0
2018-Feb-14 07:59N 49°09' W 122°58'0 0.0
2018-Feb-14 07:29N 49°09' W 122°58'0 0.0
2018-Feb-14 06:59N 49°09' W 122°58'0 0.0
2018-Feb-14 06:29N 49°09' W 122°58'0 0.0
2018-Feb-14 05:59N 49°09' W 122°58'0 0.0
2018-Feb-14 05:29N 49°09' W 122°58'0 0.0
2018-Feb-14 04:59N 49°09' W 122°58'0 0.0
2018-Feb-14 04:29N 49°09' W 122°58'0 0.0
2018-Feb-14 03:59N 49°09' W 122°58'0 0.0
2018-Feb-14 03:29N 49°09' W 122°58'0 0.0
2018-Feb-14 02:59N 49°09' W 122°58'0 0.0
2018-Feb-14 02:29N 49°09' W 122°58'0 0.0
2018-Feb-14 01:59N 49°09' W 122°58'0 0.0
2018-Feb-14 01:29N 49°09' W 122°58'0 0.0
2018-Feb-14 00:59N 49°09' W 122°58'0 0.0
2018-Feb-14 00:29N 49°09' W 122°58'0 0.0
2018-Feb-13 23:59N 49°09' W 122°58'0 0.0
2018-Feb-13 23:29N 49°09' W 122°58'0 0.0
2018-Feb-13 22:59N 49°09' W 122°58'0 0.0
2018-Feb-13 22:29N 49°09' W 122°58'0 0.0
2018-Feb-13 21:59N 49°09' W 122°58'0 0.0
2018-Feb-13 21:29N 49°09' W 122°58'0 0.0
2018-Feb-13 20:59N 49°09' W 122°58'0 0.0
2018-Feb-13 20:29N 49°09' W 122°58'0 0.0
2018-Feb-13 19:59N 49°09' W 122°58'0 0.0
2018-Feb-13 19:29N 49°09' W 122°58'0 0.0
2018-Feb-13 18:56N 49°09' W 122°58'0 0.0
2018-Feb-13 18:29N 49°09' W 122°58'0 0.0
2018-Feb-13 17:59N 49°09' W 122°58'0 0.0
2018-Feb-13 17:29N 49°09' W 122°58'0 0.0
2018-Feb-13 16:59N 49°09' W 122°58'0 0.0
2018-Feb-13 16:29N 49°09' W 122°58'0 0.0
2018-Feb-13 15:59N 49°09' W 122°58'0 0.0
2018-Feb-13 15:29N 49°09' W 122°58'0 0.0
2018-Feb-13 14:59N 49°09' W 122°58'0 0.0
2018-Feb-13 14:29N 49°09' W 122°58'0 0.0
2018-Feb-13 13:59N 49°09' W 122°58'0 0.0
2018-Feb-13 13:29N 49°09' W 122°58'0 0.0
2018-Feb-13 12:59N 49°09' W 122°58'0 0.0
2018-Feb-13 12:29N 49°09' W 122°58'0 0.0
2018-Feb-13 11:59N 49°09' W 122°58'0 0.0
2018-Feb-13 11:29N 49°09' W 122°58'0 0.0
2018-Feb-13 10:59N 49°09' W 122°58'0 0.0
2018-Feb-13 10:29N 49°09' W 122°58'0 0.0
2018-Feb-13 09:59N 49°09' W 122°58'0 0.0
2018-Feb-13 09:29N 49°09' W 122°58'0 0.0
2018-Feb-13 08:59N 49°09' W 122°58'0 0.0
2018-Feb-13 08:29N 49°09' W 122°58'0 0.0
2018-Feb-13 07:59N 49°09' W 122°58'0 0.0
2018-Feb-13 07:29N 49°09' W 122°58'0 0.0
2018-Feb-13 06:59N 49°09' W 122°58'0 0.0
2018-Feb-13 06:29N 49°09' W 122°58'0 0.0
2018-Feb-13 05:59N 49°09' W 122°58'0 0.0
2018-Feb-13 05:29N 49°09' W 122°58'0 0.0
2018-Feb-13 04:59N 49°09' W 122°58'0 0.0
2018-Feb-13 04:29N 49°09' W 122°58'0 0.0
2018-Feb-13 03:59N 49°09' W 122°58'0 0.0
2018-Feb-13 03:29N 49°09' W 122°58'0 0.0
2018-Feb-13 02:59N 49°09' W 122°58'0 0.0
2018-Feb-13 02:29N 49°09' W 122°58'0 0.0
2018-Feb-13 01:59N 49°09' W 122°58'0 0.0
2018-Feb-13 01:29N 49°09' W 122°58'0 0.0
2018-Feb-13 00:59N 49°09' W 122°58'0 0.0
2018-Feb-13 00:29N 49°09' W 122°58'0 0.0
2018-Feb-12 23:59N 49°09' W 122°58'0 0.0
2018-Feb-12 23:29N 49°09' W 122°58'0 0.0
2018-Feb-12 22:59N 49°09' W 122°58'0 0.0
2018-Feb-12 22:29N 49°09' W 122°58'0 0.0
2018-Feb-12 21:59N 49°09' W 122°58'0 0.0
2018-Feb-12 21:29N 49°09' W 122°58'0 0.0
2018-Feb-12 20:59N 49°09' W 122°58'0 0.0
2018-Feb-12 20:29N 49°09' W 122°58'0 0.0
2018-Feb-12 19:59N 49°09' W 122°58'0 0.0
2018-Feb-12 19:29N 49°09' W 122°58'0 0.0
2018-Feb-12 18:59N 49°09' W 122°58'0 0.0
2018-Feb-12 18:29N 49°09' W 122°58'0 0.0
2018-Feb-12 17:59N 49°09' W 122°58'0 0.0
2018-Feb-12 17:29N 49°09' W 122°58'0 0.0
2018-Feb-12 16:59N 49°09' W 122°58'0 0.0
2018-Feb-12 16:29N 49°09' W 122°58'0 0.0
2018-Feb-12 15:59N 49°09' W 122°58'  
Track history (hours):
 
Tides and Currents Weather Stations Pressure Air Temp Water Temp Dewpoint Dewpoint Depression Visibility Wind Speed Wind Dir Waves Ship Positions

Frpd 309

Last reported at 2018-Feb-22 15:33 UTC. Time now 2018-Feb-25 18:16 UTC.
Position N 48°24' W 123°24'.

Length 124 m; draft 6.9 m.

Type: Dredging. MMSI: 316029591.

Date/timePositionNaut miles runAvg speedWind from/ knotsBaromVisibWave heightAir tempDewpointWater temp
2018-Feb-22 15:33N 48°24' W 123°24'1 8.0
2018-Feb-22 15:22N 48°24' W 123°23'3 7.2
2018-Feb-22 15:00N 48°23' W 123°19'3 6.5
2018-Feb-22 14:30N 48°24' W 123°14'2 4.3
2018-Feb-22 14:00N 48°26' W 123°12'3 5.2
2018-Feb-22 13:30N 48°28' W 123°12'2 4.7
2018-Feb-22 13:00N 48°31' W 123°12'2 4.5
2018-Feb-22 12:30N 48°33' W 123°13'2 4.8
2018-Feb-22 12:00N 48°35' W 123°14'2 4.8
2018-Feb-22 11:30N 48°38' W 123°14'2 4.4
2018-Feb-22 11:00N 48°40' W 123°15'2 3.5
2018-Feb-22 10:30N 48°41' W 123°16'2 3.2
2018-Feb-22 10:00N 48°43' W 123°15'2 4.6
2018-Feb-22 09:30N 48°43' W 123°12'2 4.3
2018-Feb-22 09:00N 48°44' W 123°09'3 5.2
2018-Feb-22 08:30N 48°45' W 123°05'4 7.0
2018-Feb-22 08:00N 48°47' W 123°01'4 7.2
2018-Feb-22 07:30N 48°50' W 123°04'4 7.8
2018-Feb-22 07:00N 48°53' W 123°08'4 8.2
2018-Feb-22 06:30N 48°56' W 123°12'4 8.4
2018-Feb-22 06:00N 48°58' W 123°17'5 9.2
2018-Feb-22 05:29N 49°02' W 123°22'3 6.4
2018-Feb-22 05:00N 49°05' W 123°22'2 3.7
2018-Feb-22 04:30N 49°06' W 123°20'4 8.4
2018-Feb-22 04:00N 49°08' W 123°14'5 9.6
2018-Feb-22 03:30N 49°07' W 123°07'5 9.9
2018-Feb-22 03:00N 49°09' W 123°00'2 3.5
2018-Feb-22 02:30N 49°09' W 122°58'0 0.1
2018-Feb-22 02:00N 49°09' W 122°58'0 0.0
2018-Feb-22 01:30N 49°09' W 122°58'0 0.0
2018-Feb-22 01:00N 49°09' W 122°58'0 0.0
2018-Feb-22 00:30N 49°09' W 122°58'0 0.0
2018-Feb-22 00:00N 49°09' W 122°58'0 0.0
2018-Feb-21 23:30N 49°09' W 122°58'0 0.0
2018-Feb-21 23:00N 49°09' W 122°58'0 0.0
2018-Feb-21 22:30N 49°09' W 122°58'0 0.0
2018-Feb-21 22:00N 49°09' W 122°58'0 0.0
2018-Feb-21 21:30N 49°09' W 122°58'0 0.0
2018-Feb-21 21:00N 49°09' W 122°58'0 0.0
2018-Feb-21 20:30N 49°09' W 122°58'0 0.0
2018-Feb-21 20:00N 49°09' W 122°58'0 0.0
2018-Feb-21 19:30N 49°09' W 122°58'0 0.0
2018-Feb-21 19:00N 49°09' W 122°58'0 0.0
2018-Feb-21 18:30N 49°09' W 122°58'0 0.0
2018-Feb-21 18:00N 49°09' W 122°58'0 0.0
2018-Feb-21 17:30N 49°09' W 122°58'0 0.0
2018-Feb-21 17:00N 49°09' W 122°58'0 0.0
2018-Feb-21 16:30N 49°09' W 122°58'0 0.0
2018-Feb-21 16:00N 49°09' W 122°58'0 0.0
2018-Feb-21 15:30N 49°09' W 122°58'0 0.0
2018-Feb-21 15:00N 49°09' W 122°58'0 0.0
2018-Feb-21 14:30N 49°09' W 122°58'0 0.0
2018-Feb-21 14:00N 49°09' W 122°58'0 0.0
2018-Feb-21 13:30N 49°09' W 122°58'0 0.0
2018-Feb-21 13:00N 49°09' W 122°58'0 0.0
2018-Feb-21 12:30N 49°09' W 122°58'0 0.0
2018-Feb-21 12:00N 49°09' W 122°58'0 0.0
2018-Feb-21 11:30N 49°09' W 122°58'0 0.0
2018-Feb-21 10:57N 49°09' W 122°58'0 0.0
2018-Feb-21 10:30N 49°09' W 122°58'0 0.0
2018-Feb-21 10:00N 49°09' W 122°58'0 0.0
2018-Feb-21 09:30N 49°09' W 122°58'0 0.0
2018-Feb-21 09:00N 49°09' W 122°58'0 0.0
2018-Feb-21 08:30N 49°09' W 122°58'0 0.0
2018-Feb-21 08:00N 49°09' W 122°58'0 0.0
2018-Feb-21 07:30N 49°09' W 122°58'0 0.0
2018-Feb-21 07:00N 49°09' W 122°58'0 0.0
2018-Feb-21 06:30N 49°09' W 122°58'0 0.0
2018-Feb-21 06:00N 49°09' W 122°58'0 0.0
2018-Feb-21 05:30N 49°09' W 122°58'0 0.0
2018-Feb-21 05:00N 49°09' W 122°58'0 0.0
2018-Feb-21 04:30N 49°09' W 122°58'0 0.0
2018-Feb-21 04:00N 49°09' W 122°58'0 0.0
2018-Feb-21 03:30N 49°09' W 122°58'0 0.0
2018-Feb-21 03:00N 49°09' W 122°58'0 0.0
2018-Feb-21 02:30N 49°09' W 122°58'0 0.0
2018-Feb-21 02:00N 49°09' W 122°58'0 0.0
2018-Feb-21 01:30N 49°09' W 122°58'0 0.0
2018-Feb-21 01:00N 49°09' W 122°58'0 0.0
2018-Feb-21 00:29N 49°09' W 122°58'0 0.0
2018-Feb-21 00:00N 49°09' W 122°58'0 0.0
2018-Feb-20 23:30N 49°09' W 122°58'0 0.0
2018-Feb-20 23:00N 49°09' W 122°58'0 0.0
2018-Feb-20 22:30N 49°09' W 122°58'0 0.0
2018-Feb-20 22:00N 49°09' W 122°58'0 0.0
2018-Feb-20 21:29N 49°09' W 122°58'0 0.0
2018-Feb-20 21:00N 49°09' W 122°58'0 0.0
2018-Feb-20 20:29N 49°09' W 122°58'0 0.0
2018-Feb-20 20:00N 49°09' W 122°58'0 0.0
2018-Feb-20 19:29N 49°09' W 122°58'0 0.0
2018-Feb-20 18:59N 49°09' W 122°58'0 0.0
2018-Feb-20 18:30N 49°09' W 122°58'0 0.0
2018-Feb-20 18:00N 49°09' W 122°58'0 0.0
2018-Feb-20 17:29N 49°09' W 122°58'0 0.0
2018-Feb-20 16:59N 49°09' W 122°58'0 0.0
2018-Feb-20 16:29N 49°09' W 122°58'0 0.0
2018-Feb-20 16:00N 49°09' W 122°58'0 0.0
2018-Feb-20 15:29N 49°09' W 122°58'0 0.0
2018-Feb-20 15:00N 49°09' W 122°58'0 0.0
2018-Feb-20 14:30N 49°09' W 122°58'0 0.0
2018-Feb-20 14:00N 49°09' W 122°58'0 0.0
2018-Feb-20 13:30N 49°09' W 122°58'0 0.0
2018-Feb-20 12:59N 49°09' W 122°58'0 0.0
2018-Feb-20 12:29N 49°09' W 122°58'0 0.0
2018-Feb-20 12:00N 49°09' W 122°58'0 0.0
2018-Feb-20 11:30N 49°09' W 122°58'0 0.0
2018-Feb-20 11:00N 49°09' W 122°58'0 0.0
2018-Feb-20 10:29N 49°09' W 122°58'0 0.0
2018-Feb-20 09:59N 49°09' W 122°58'0 0.0
2018-Feb-20 09:29N 49°09' W 122°58'0 0.0
2018-Feb-20 09:00N 49°09' W 122°58'0 0.0
2018-Feb-20 08:30N 49°09' W 122°58'0 0.0
2018-Feb-20 07:59N 49°09' W 122°58'0 0.0
2018-Feb-20 07:29N 49°09' W 122°58'0 0.0
2018-Feb-20 06:59N 49°09' W 122°58'0 0.0
2018-Feb-20 06:29N 49°09' W 122°58'0 0.0
2018-Feb-20 05:59N 49°09' W 122°58'0 0.0
2018-Feb-20 05:29N 49°09' W 122°58'0 0.0
2018-Feb-20 04:59N 49°09' W 122°58'0 0.0
2018-Feb-20 04:29N 49°09' W 122°58'0 0.0
2018-Feb-20 03:59N 49°09' W 122°58'0 0.0
2018-Feb-20 03:29N 49°09' W 122°58'0 0.0
2018-Feb-20 02:59N 49°09' W 122°58'0 0.0
2018-Feb-20 02:29N 49°09' W 122°58'0 0.0
2018-Feb-20 01:59N 49°09' W 122°58'0 0.0
2018-Feb-20 01:29N 49°09' W 122°58'0 0.0
2018-Feb-20 00:59N 49°09' W 122°58'0 0.0
2018-Feb-20 00:29N 49°09' W 122°58'0 0.0
2018-Feb-19 23:59N 49°09' W 122°58'0 0.0
2018-Feb-19 23:29N 49°09' W 122°58'0 0.0
2018-Feb-19 22:59N 49°09' W 122°58'0 0.0
2018-Feb-19 22:29N 49°09' W 122°58'0 0.0
2018-Feb-19 21:59N 49°09' W 122°58'0 0.0
2018-Feb-19 21:24N 49°09' W 122°58'0 0.0
2018-Feb-19 20:59N 49°09' W 122°58'0 0.0
2018-Feb-19 20:29N 49°09' W 122°58'0 0.0
2018-Feb-19 19:59N 49°09' W 122°58'0 0.0
2018-Feb-19 19:29N 49°09' W 122°58'0 0.0
2018-Feb-19 18:59N 49°09' W 122°58'0 0.0
2018-Feb-19 18:29N 49°09' W 122°58'0 0.0
2018-Feb-19 17:59N 49°09' W 122°58'0 0.0
2018-Feb-19 17:29N 49°09' W 122°58'0 0.0
2018-Feb-19 16:59N 49°09' W 122°58'0 0.0
2018-Feb-19 16:29N 49°09' W 122°58'0 0.0
2018-Feb-19 15:59N 49°09' W 122°58'0 0.0
2018-Feb-19 15:29N 49°09' W 122°58'0 0.0
2018-Feb-19 14:59N 49°09' W 122°58'0 0.0
2018-Feb-19 14:29N 49°09' W 122°58'0 0.0
2018-Feb-19 13:59N 49°09' W 122°58'0 0.0
2018-Feb-19 13:29N 49°09' W 122°58'0 0.0
2018-Feb-19 12:59N 49°09' W 122°58'0 0.0
2018-Feb-19 12:29N 49°09' W 122°58'0 0.0
2018-Feb-19 11:59N 49°09' W 122°58'0 0.0
2018-Feb-19 11:29N 49°09' W 122°58'0 0.0
2018-Feb-19 10:59N 49°09' W 122°58'0 0.0
2018-Feb-19 10:29N 49°09' W 122°58'0 0.0
2018-Feb-19 09:59N 49°09' W 122°58'0 0.0
2018-Feb-19 09:29N 49°09' W 122°58'0 0.0
2018-Feb-19 08:59N 49°09' W 122°58'0 0.0
2018-Feb-19 08:23N 49°09' W 122°58'0 0.0
2018-Feb-19 07:59N 49°09' W 122°58'0 0.0
2018-Feb-19 07:29N 49°09' W 122°58'0 0.0
2018-Feb-19 06:59N 49°09' W 122°58'0 0.0
2018-Feb-19 06:29N 49°09' W 122°58'0 0.0
2018-Feb-19 05:59N 49°09' W 122°58'0 0.0
2018-Feb-19 05:29N 49°09' W 122°58'0 0.0
2018-Feb-19 04:59N 49°09' W 122°58'0 0.0
2018-Feb-19 04:29N 49°09' W 122°58'0 0.0
2018-Feb-19 03:59N 49°09' W 122°58'0 0.0
2018-Feb-19 03:29N 49°09' W 122°58'0 0.0
2018-Feb-19 02:59N 49°09' W 122°58'0 0.0
2018-Feb-19 02:29N 49°09' W 122°58'0 0.0
2018-Feb-19 01:59N 49°09' W 122°58'0 0.0
2018-Feb-19 01:29N 49°09' W 122°58'0 0.0
2018-Feb-19 00:59N 49°09' W 122°58'0 0.0
2018-Feb-19 00:29N 49°09' W 122°58'0 0.0
2018-Feb-18 23:59N 49°09' W 122°58'0 0.0
2018-Feb-18 23:29N 49°09' W 122°58'0 0.0
2018-Feb-18 22:59N 49°09' W 122°58'0 0.0
2018-Feb-18 22:29N 49°09' W 122°58'0 0.0
2018-Feb-18 21:59N 49°09' W 122°58'0 0.0
2018-Feb-18 21:29N 49°09' W 122°58'0 0.0
2018-Feb-18 20:59N 49°09' W 122°58'0 0.0
2018-Feb-18 20:29N 49°09' W 122°58'0 0.0
2018-Feb-18 19:59N 49°09' W 122°58'0 0.0
2018-Feb-18 19:29N 49°09' W 122°58'0 0.0
2018-Feb-18 18:59N 49°09' W 122°58'0 0.0
2018-Feb-18 18:29N 49°09' W 122°58'0 0.0
2018-Feb-18 17:59N 49°09' W 122°58'0 0.0
2018-Feb-18 17:29N 49°09' W 122°58'0 0.0
2018-Feb-18 16:59N 49°09' W 122°58'0 0.0
2018-Feb-18 16:29N 49°09' W 122°58'0 0.0
2018-Feb-18 15:59N 49°09' W 122°58'0 0.0
2018-Feb-18 15:29N 49°09' W 122°58'0 0.0
2018-Feb-18 14:59N 49°09' W 122°58'0 0.0
2018-Feb-18 14:29N 49°09' W 122°58'0 0.0
2018-Feb-18 13:59N 49°09' W 122°58'0 0.0
2018-Feb-18 13:29N 49°09' W 122°58'0 0.0
2018-Feb-18 12:59N 49°09' W 122°58'0 0.0
2018-Feb-18 12:29N 49°09' W 122°58'0 0.0
2018-Feb-18 11:59N 49°09' W 122°58'0 0.0
2018-Feb-18 11:29N 49°09' W 122°58'0 0.0
2018-Feb-18 10:59N 49°09' W 122°58'0 0.0
2018-Feb-18 10:29N 49°09' W 122°58'0 0.0
2018-Feb-18 09:59N 49°09' W 122°58'0 0.0
2018-Feb-18 09:29N 49°09' W 122°58'0 0.0
2018-Feb-18 08:59N 49°09' W 122°58'0 0.0
2018-Feb-18 08:29N 49°09' W 122°58'0 0.0
2018-Feb-18 07:59N 49°09' W 122°58'0 0.0
2018-Feb-18 07:29N 49°09' W 122°58'0 0.0
2018-Feb-18 06:59N 49°09' W 122°58'0 0.0
2018-Feb-18 06:29N 49°09' W 122°58'0 0.0
2018-Feb-18 05:59N 49°09' W 122°58'0 0.0
2018-Feb-18 05:29N 49°09' W 122°58'0 0.0
2018-Feb-18 04:59N 49°09' W 122°58'0 0.0
2018-Feb-18 04:29N 49°09' W 122°58'0 0.0
2018-Feb-18 03:59N 49°09' W 122°58'0 0.0
2018-Feb-18 03:29N 49°09' W 122°58'0 0.0
2018-Feb-18 02:59N 49°09' W 122°58'0 0.0
2018-Feb-18 02:29N 49°09' W 122°58'0 0.0
2018-Feb-18 01:59N 49°09' W 122°58'0 0.0
2018-Feb-18 01:29N 49°09' W 122°58'0 0.0
2018-Feb-18 00:59N 49°09' W 122°58'0 0.0
2018-Feb-18 00:29N 49°09' W 122°58'0 0.0
2018-Feb-17 23:59N 49°09' W 122°58'0 0.0
2018-Feb-17 23:29N 49°09' W 122°58'0 0.0
2018-Feb-17 22:59N 49°09' W 122°58'0 0.0
2018-Feb-17 22:29N 49°09' W 122°58'0 0.0
2018-Feb-17 21:59N 49°09' W 122°58'0 0.0
2018-Feb-17 21:29N 49°09' W 122°58'0 0.0
2018-Feb-17 20:59N 49°09' W 122°58'0 0.0
2018-Feb-17 20:29N 49°09' W 122°58'0 0.0
2018-Feb-17 19:59N 49°09' W 122°58'0 0.0
2018-Feb-17 19:29N 49°09' W 122°58'0 0.0
2018-Feb-17 18:59N 49°09' W 122°58'0 0.0
2018-Feb-17 18:29N 49°09' W 122°58'0 0.0
2018-Feb-17 17:59N 49°09' W 122°58'0 0.0
2018-Feb-17 17:29N 49°09' W 122°58'0 0.0
2018-Feb-17 16:59N 49°09' W 122°58'0 0.0
2018-Feb-17 16:29N 49°09' W 122°58'0 0.0
2018-Feb-17 15:59N 49°09' W 122°58'0 0.0
2018-Feb-17 15:29N 49°09' W 122°58'0 0.0
2018-Feb-17 14:59N 49°09' W 122°58'0 0.0
2018-Feb-17 14:29N 49°09' W 122°58'0 0.0
2018-Feb-17 13:59N 49°09' W 122°58'0 0.0
2018-Feb-17 13:29N 49°09' W 122°58'0 0.0
2018-Feb-17 12:59N 49°09' W 122°58'0 0.0
2018-Feb-17 12:29N 49°09' W 122°58'0 0.0
2018-Feb-17 11:59N 49°09' W 122°58'0 0.0
2018-Feb-17 11:29N 49°09' W 122°58'0 0.0
2018-Feb-17 10:59N 49°09' W 122°58'0 0.0
2018-Feb-17 10:29N 49°09' W 122°58'0 0.0
2018-Feb-17 09:59N 49°09' W 122°58'0 0.0
2018-Feb-17 09:29N 49°09' W 122°58'0 0.0
2018-Feb-17 08:59N 49°09' W 122°58'0 0.0
2018-Feb-17 08:29N 49°09' W 122°58'0 0.0
2018-Feb-17 07:59N 49°09' W 122°58'0 0.0
2018-Feb-17 07:29N 49°09' W 122°58'0 0.0
2018-Feb-17 06:59N 49°09' W 122°58'0 0.0
2018-Feb-17 06:29N 49°09' W 122°58'0 0.0
2018-Feb-17 05:59N 49°09' W 122°58'0 0.0
2018-Feb-17 05:29N 49°09' W 122°58'0 0.0
2018-Feb-17 04:59N 49°09' W 122°58'0 0.0
2018-Feb-17 04:29N 49°09' W 122°58'0 0.0
2018-Feb-17 03:59N 49°09' W 122°58'0 0.0
2018-Feb-17 03:29N 49°09' W 122°58'0 0.0
2018-Feb-17 02:59N 49°09' W 122°58'0 0.0
2018-Feb-17 02:29N 49°09' W 122°58'0 0.0
2018-Feb-17 01:59N 49°09' W 122°58'0 0.0
2018-Feb-17 01:29N 49°09' W 122°58'0 0.0
2018-Feb-17 00:59N 49°09' W 122°58'0 0.0
2018-Feb-17 00:29N 49°09' W 122°58'0 0.0
2018-Feb-16 23:59N 49°09' W 122°58'0 0.0
2018-Feb-16 23:29N 49°09' W 122°58'0 0.0
2018-Feb-16 22:59N 49°09' W 122°58'0 0.0
2018-Feb-16 22:29N 49°09' W 122°58'0 0.0
2018-Feb-16 21:59N 49°09' W 122°58'0 0.0
2018-Feb-16 21:29N 49°09' W 122°58'0 0.0
2018-Feb-16 20:59N 49°09' W 122°58'0 0.0
2018-Feb-16 20:29N 49°09' W 122°58'0 0.0
2018-Feb-16 19:59N 49°09' W 122°58'0 0.0
2018-Feb-16 19:29N 49°09' W 122°58'0 0.0
2018-Feb-16 18:59N 49°09' W 122°58'0 0.0
2018-Feb-16 18:29N 49°09' W 122°58'0 0.0
2018-Feb-16 17:59N 49°09' W 122°58'0 0.0
2018-Feb-16 17:29N 49°09' W 122°58'0 0.0
2018-Feb-16 16:59N 49°09' W 122°58'0 0.0
2018-Feb-16 16:23N 49°09' W 122°58'0 0.0
2018-Feb-16 15:59N 49°09' W 122°58'0 0.0
2018-Feb-16 15:29N 49°09' W 122°58'0 0.0
2018-Feb-16 14:59N 49°09' W 122°58'0 0.0
2018-Feb-16 14:29N 49°09' W 122°58'0 0.0
2018-Feb-16 13:59N 49°09' W 122°58'0 0.0
2018-Feb-16 13:29N 49°09' W 122°58'0 0.0
2018-Feb-16 12:59N 49°09' W 122°58'0 0.0
2018-Feb-16 12:29N 49°09' W 122°58'0 0.0
2018-Feb-16 11:59N 49°09' W 122°58'0 0.0
2018-Feb-16 11:29N 49°09' W 122°58'0 0.0
2018-Feb-16 10:59N 49°09' W 122°58'0 0.0
2018-Feb-16 10:29N 49°09' W 122°58'0 0.0
2018-Feb-16 09:59N 49°09' W 122°58'0 0.0
2018-Feb-16 09:29N 49°09' W 122°58'0 0.0
2018-Feb-16 08:59N 49°09' W 122°58'0 0.0
2018-Feb-16 08:29N 49°09' W 122°58'0 0.0
2018-Feb-16 07:59N 49°09' W 122°58'0 0.0
2018-Feb-16 07:29N 49°09' W 122°58'0 0.0
2018-Feb-16 06:59N 49°09' W 122°58'0 0.0
2018-Feb-16 06:29N 49°09' W 122°58'0 0.0
2018-Feb-16 05:59N 49°09' W 122°58'0 0.0
2018-Feb-16 05:29N 49°09' W 122°58'0 0.0
2018-Feb-16 04:53N 49°09' W 122°58'0 0.0
2018-Feb-16 04:29N 49°09' W 122°58'0 0.0
2018-Feb-16 03:59N 49°09' W 122°58'0 0.0
2018-Feb-16 03:29N 49°09' W 122°58'0 0.0
2018-Feb-16 02:59N 49°09' W 122°58'0 0.0
2018-Feb-16 02:29N 49°09' W 122°58'0 0.0
2018-Feb-16 01:59N 49°09' W 122°58'0 0.0
2018-Feb-16 01:29N 49°09' W 122°58'0 0.0
2018-Feb-16 00:56N 49°09' W 122°58'0 0.0
2018-Feb-16 00:29N 49°09' W 122°58'0 0.0
2018-Feb-15 23:59N 49°09' W 122°58'0 0.0
2018-Feb-15 23:29N 49°09' W 122°58'0 0.0
2018-Feb-15 22:59N 49°09' W 122°58'0 0.0
2018-Feb-15 22:29N 49°09' W 122°58'0 0.0
2018-Feb-15 21:59N 49°09' W 122°58'0 0.0
2018-Feb-15 21:29N 49°09' W 122°58'0 0.0
2018-Feb-15 20:59N 49°09' W 122°58'0 0.0
2018-Feb-15 20:29N 49°09' W 122°58'0 0.0
2018-Feb-15 19:59N 49°09' W 122°58'0 0.0
2018-Feb-15 19:29N 49°09' W 122°58'0 0.0
2018-Feb-15 18:59N 49°09' W 122°58'0 0.0
2018-Feb-15 18:29N 49°09' W 122°58'0 0.0
2018-Feb-15 17:59N 49°09' W 122°58'0 0.0
2018-Feb-15 17:29N 49°09' W 122°58'0 0.0
2018-Feb-15 16:59N 49°09' W 122°58'0 0.0
2018-Feb-15 16:29N 49°09' W 122°58'0 0.0
2018-Feb-15 15:59N 49°09' W 122°58'0 0.0
2018-Feb-15 15:29N 49°09' W 122°58'0 0.0
2018-Feb-15 14:59N 49°09' W 122°58'0 0.0
2018-Feb-15 14:29N 49°09' W 122°58'0 0.0
2018-Feb-15 13:59N 49°09' W 122°58'0 0.0
2018-Feb-15 13:29N 49°09' W 122°58'0 0.0
2018-Feb-15 12:59N 49°09' W 122°58'0 0.0
2018-Feb-15 12:29N 49°09' W 122°58'0 0.0
2018-Feb-15 11:59N 49°09' W 122°58'0 0.0
2018-Feb-15 11:29N 49°09' W 122°58'0 0.0
2018-Feb-15 10:59N 49°09' W 122°58'0 0.0
2018-Feb-15 10:29N 49°09' W 122°58'0 0.0
2018-Feb-15 09:59N 49°09' W 122°58'0 0.0
2018-Feb-15 09:29N 49°09' W 122°58'0 0.0
2018-Feb-15 08:59N 49°09' W 122°58'0 0.0
2018-Feb-15 08:29N 49°09' W 122°58'0 0.0
2018-Feb-15 07:59N 49°09' W 122°58'0 0.0
2018-Feb-15 07:29N 49°09' W 122°58'0 0.0
2018-Feb-15 06:59N 49°09' W 122°58'0 0.0
2018-Feb-15 06:23N 49°09' W 122°58'0 0.0
2018-Feb-15 05:59N 49°09' W 122°58'0 0.0
2018-Feb-15 05:29N 49°09' W 122°58'0 0.0
2018-Feb-15 04:59N 49°09' W 122°58'0 0.0
2018-Feb-15 04:29N 49°09' W 122°58'0 0.0
2018-Feb-15 03:59N 49°09' W 122°58'0 0.0
2018-Feb-15 03:29N 49°09' W 122°58'0 0.0
2018-Feb-15 02:59N 49°09' W 122°58'0 0.0
2018-Feb-15 02:29N 49°09' W 122°58'0 0.0
2018-Feb-15 01:59N 49°09' W 122°58'0 0.0
2018-Feb-15 01:29N 49°09' W 122°58'0 0.0
2018-Feb-15 00:59N 49°09' W 122°58'0 0.0
2018-Feb-15 00:29N 49°09' W 122°58'0 0.0
2018-Feb-14 23:59N 49°09' W 122°58'0 0.0
2018-Feb-14 23:29N 49°09' W 122°58'0 0.0
2018-Feb-14 22:59N 49°09' W 122°58'0 0.0
2018-Feb-14 22:29N 49°09' W 122°58'0 0.0
2018-Feb-14 21:59N 49°09' W 122°58'0 0.0
2018-Feb-14 21:29N 49°09' W 122°58'0 0.0
2018-Feb-14 20:59N 49°09' W 122°58'0 0.0
2018-Feb-14 20:29N 49°09' W 122°58'0 0.0
2018-Feb-14 19:59N 49°09' W 122°58'0 0.0
2018-Feb-14 19:29N 49°09' W 122°58'0 0.0
2018-Feb-14 18:59N 49°09' W 122°58'0 0.0
2018-Feb-14 18:26N 49°09' W 122°58'0 0.0
2018-Feb-14 17:59N 49°09' W 122°58'0 0.0
2018-Feb-14 17:29N 49°09' W 122°58'0 0.0
2018-Feb-14 16:59N 49°09' W 122°58'0 0.0
2018-Feb-14 16:29N 49°09' W 122°58'0 0.0
2018-Feb-14 15:59N 49°09' W 122°58'0 0.0
2018-Feb-14 15:29N 49°09' W 122°58'0 0.0
2018-Feb-14 14:59N 49°09' W 122°58'0 0.0
2018-Feb-14 14:29N 49°09' W 122°58'0 0.0
2018-Feb-14 13:59N 49°09' W 122°58'0 0.0
2018-Feb-14 13:29N 49°09' W 122°58'0 0.0
2018-Feb-14 12:59N 49°09' W 122°58'0 0.0
2018-Feb-14 12:29N 49°09' W 122°58'0 0.0
2018-Feb-14 11:59N 49°09' W 122°58'0 0.0
2018-Feb-14 11:29N 49°09' W 122°58'0 0.0
2018-Feb-14 10:59N 49°09' W 122°58'0 0.0
2018-Feb-14 10:29N 49°09' W 122°58'0 0.0
2018-Feb-14 09:59N 49°09' W 122°58'0 0.0
2018-Feb-14 09:29N 49°09' W 122°58'0 0.0
2018-Feb-14 08:59N 49°09' W 122°58'0 0.0
2018-Feb-14 08:29N 49°09' W 122°58'0 0.0
2018-Feb-14 07:59N 49°09' W 122°58'0 0.0
2018-Feb-14 07:29N 49°09' W 122°58'0 0.0
2018-Feb-14 06:59N 49°09' W 122°58'0 0.0
2018-Feb-14 06:29N 49°09' W 122°58'0 0.0
2018-Feb-14 05:59N 49°09' W 122°58'0 0.0
2018-Feb-14 05:29N 49°09' W 122°58'0 0.0
2018-Feb-14 04:59N 49°09' W 122°58'0 0.0
2018-Feb-14 04:29N 49°09' W 122°58'0 0.0
2018-Feb-14 03:59N 49°09' W 122°58'0 0.0
2018-Feb-14 03:29N 49°09' W 122°58'0 0.0
2018-Feb-14 02:59N 49°09' W 122°58'0 0.0
2018-Feb-14 02:29N 49°09' W 122°58'0 0.0
2018-Feb-14 01:59N 49°09' W 122°58'0 0.0
2018-Feb-14 01:29N 49°09' W 122°58'0 0.0
2018-Feb-14 00:59N 49°09' W 122°58'0 0.0
2018-Feb-14 00:29N 49°09' W 122°58'0 0.0
2018-Feb-13 23:59N 49°09' W 122°58'0 0.0
2018-Feb-13 23:29N 49°09' W 122°58'0 0.0
2018-Feb-13 22:59N 49°09' W 122°58'0 0.0
2018-Feb-13 22:29N 49°09' W 122°58'0 0.0
2018-Feb-13 21:59N 49°09' W 122°58'0 0.0
2018-Feb-13 21:29N 49°09' W 122°58'0 0.0
2018-Feb-13 20:59N 49°09' W 122°58'0 0.0
2018-Feb-13 20:29N 49°09' W 122°58'0 0.0
2018-Feb-13 19:59N 49°09' W 122°58'0 0.0
2018-Feb-13 19:29N 49°09' W 122°58'0 0.0
2018-Feb-13 18:56N 49°09' W 122°58'0 0.0
2018-Feb-13 18:29N 49°09' W 122°58'0 0.0
2018-Feb-13 17:59N 49°09' W 122°58'0 0.0
2018-Feb-13 17:29N 49°09' W 122°58'0 0.0
2018-Feb-13 16:59N 49°09' W 122°58'0 0.0
2018-Feb-13 16:29N 49°09' W 122°58'0 0.0
2018-Feb-13 15:59N 49°09' W 122°58'0 0.0
2018-Feb-13 15:29N 49°09' W 122°58'0 0.0
2018-Feb-13 14:59N 49°09' W 122°58'0 0.0
2018-Feb-13 14:29N 49°09' W 122°58'0 0.0
2018-Feb-13 13:59N 49°09' W 122°58'0 0.0
2018-Feb-13 13:29N 49°09' W 122°58'0 0.0
2018-Feb-13 12:59N 49°09' W 122°58'0 0.0
2018-Feb-13 12:29N 49°09' W 122°58'0 0.0
2018-Feb-13 11:59N 49°09' W 122°58'0 0.0
2018-Feb-13 11:29N 49°09' W 122°58'0 0.0
2018-Feb-13 10:59N 49°09' W 122°58'0 0.0
2018-Feb-13 10:29N 49°09' W 122°58'0 0.0
2018-Feb-13 09:59N 49°09' W 122°58'0 0.0
2018-Feb-13 09:29N 49°09' W 122°58'0 0.0
2018-Feb-13 08:59N 49°09' W 122°58'0 0.0
2018-Feb-13 08:29N 49°09' W 122°58'0 0.0
2018-Feb-13 07:59N 49°09' W 122°58'0 0.0
2018-Feb-13 07:29N 49°09' W 122°58'0 0.0
2018-Feb-13 06:59N 49°09' W 122°58'0 0.0
2018-Feb-13 06:29N 49°09' W 122°58'0 0.0
2018-Feb-13 05:59N 49°09' W 122°58'0 0.0
2018-Feb-13 05:29N 49°09' W 122°58'0 0.0
2018-Feb-13 04:59N 49°09' W 122°58'0 0.0
2018-Feb-13 04:29N 49°09' W 122°58'0 0.0
2018-Feb-13 03:59N 49°09' W 122°58'0 0.0
2018-Feb-13 03:29N 49°09' W 122°58'0 0.0
2018-Feb-13 02:59N 49°09' W 122°58'0 0.0
2018-Feb-13 02:29N 49°09' W 122°58'0 0.0
2018-Feb-13 01:59N 49°09' W 122°58'0 0.0
2018-Feb-13 01:29N 49°09' W 122°58'0 0.0
2018-Feb-13 00:59N 49°09' W 122°58'0 0.0
2018-Feb-13 00:29N 49°09' W 122°58'0 0.0
2018-Feb-12 23:59N 49°09' W 122°58'0 0.0
2018-Feb-12 23:29N 49°09' W 122°58'0 0.0
2018-Feb-12 22:59N 49°09' W 122°58'0 0.0
2018-Feb-12 22:29N 49°09' W 122°58'0 0.0
2018-Feb-12 21:59N 49°09' W 122°58'0 0.0
2018-Feb-12 21:29N 49°09' W 122°58'0 0.0
2018-Feb-12 20:59N 49°09' W 122°58'0 0.0
2018-Feb-12 20:29N 49°09' W 122°58'0 0.0
2018-Feb-12 19:59N 49°09' W 122°58'0 0.0
2018-Feb-12 19:29N 49°09' W 122°58'0 0.0
2018-Feb-12 18:59N 49°09' W 122°58'0 0.0
2018-Feb-12 18:29N 49°09' W 122°58'0 0.0
2018-Feb-12 17:59N 49°09' W 122°58'0 0.0
2018-Feb-12 17:29N 49°09' W 122°58'0 0.0
2018-Feb-12 16:59N 49°09' W 122°58'0 0.0
2018-Feb-12 16:29N 49°09' W 122°58'0 0.0
2018-Feb-12 15:59N 49°09' W 122°58'  

Dump ship's entire track history